Nashville, TN

5:10 PM CST on December 28, 2014 (GMT -0600)
Campbell Army Air Field | Change Station
CLOSE
Current Station
Airport
Location: Fort Campbell,
Elevation: 571 ft
Nearby Weather Stations

Elev 571 ft 36.67 °N, 87.50 °W | Updated 12 minutes ago

Rain
Rain
36 °F
Feels Like 29 °F
N
8
Wind Variable Wind from North

Today
High -- | Low -- °F
--% Chance of Precip.
Yesterday
High -- | Low -- °F
Precip. -- in
6:57 AM 4:40 PM
First Quarter, 52% visible
Pressure 30.21 in
Visibility 10.0 miles
Clouds Overcast 1200 ft
Windchill 29 °F
Dew Point 32 °F
Humidity 86%
Rainfall 0.01 in
Snow Depth Not available.
UV 0 out of 12
Pollen .10 out of 12
Air Quality Not available.
Flu Activity Not available.
METAR KHOP 282258Z AUTO 36007KT 10SM OVC012 02/00 A3019 RMK AO2 SLP229 T00201001

More Conditions Fewer Conditions

Pressure 30.21 in
Visibility 10.0 miles
Clouds Overcast 1200 ft
Windchill 29 °F
Dew Point 32 °F
Humidity 86%
Rainfall 0.01 in
Snow Depth Not available.
UV 0 out of 12
Pollen .10 out of 12
Air Quality Not available.
Flu Activity Not available.
METAR KHOP 282258Z AUTO 36007KT 10SM OVC012 02/00 A3019 RMK AO2 SLP229 T00201001

More Conditions Fewer Conditions

10-Day Weather Forecast

Almanac

Astronomy

Dec. 28, 2014 Rise Set
Actual Time
Civil Twilight
Nautical Twilight
Astronomical Twilight
Moon
Length of Visible Light
Length of Day
Tomorrow will be .
, % of the Moon is Illuminated

Today's Extremes

State Highs State Lows

Community

WunderPhotos

Upload Photos

1,781,459 photos uploaded!

WunderBlogs® & News

Nearby

Air Quality

  Air Quality AQ Index Pollutant
Not available.

Snow Depth

Station Depth Elevation

Earthquake Activity

City Distance Mag. Time & Date
Minimum magnitude displayed is 2.5.

Coastal Water Temperatures

Place Temperature

Nearby Weather Stations